Overview Statistics Trail Chart Weather Telemetry Raw packets
 

This is the latest recevied weather packets stored in our database for station/object K1NOT-WX. If no packets are shown the sender has not sent any weather packets the latest 10 day(s).

<< 13 14 15 16 17 18 19 >>
Time Temp. Humidity Pressure Rain* Wind** Luminosity Snow
1777432332 11.11° C 82% 1014.6 hPa 0 mm - - -
1777431432 11.11° C 82% 1014.6 hPa 0 mm - - -
1777430532 11.11° C 81% 1014.6 hPa 0 mm - - -
1777429632 11.67° C 81% 1014.6 hPa 0 mm - - -
1777428732 11.67° C 79% 1014.6 hPa 0 mm - - -
1777427832 11.67° C 75% 1014.9 hPa 0 mm - - -
1777426932 12.22° C 71% 1014.6 hPa 0 mm - - -
1777426032 12.78° C 68% 1014.9 hPa 0 mm - - -
1777425132 13.33° C 66% 1014.6 hPa 0 mm - - -
1777424232 13.33° C 66% 1014.2 hPa 0 mm - - -
1777423332 13.33° C 65% 1014.6 hPa 0 mm - - -
1777422432 13.33° C 65% 1014.2 hPa 0 mm - - -
1777421532 13.33° C 64% 1014.2 hPa 0 mm - - -
1777420632 13.89° C 64% 1014.2 hPa 0 mm - - -
1777419732 13.89° C 63% 1014.2 hPa 0 mm - - -
1777418832 13.89° C 61% 1014.2 hPa 0 mm - - -
1777417932 13.89° C 60% 1014.2 hPa 0 mm - - -
1777417032 13.89° C 62% 1014.2 hPa 0 mm - - -
1777416132 13.89° C 63% 1013.9 hPa 0 mm - - -
1777415232 13.89° C 63% 1014.2 hPa 0 mm - - -
1777414332 13.89° C 63% 1014.2 hPa 0 mm - - -
1777413432 13.89° C 63% 1014.2 hPa 0 mm - - -
1777412532 13.89° C 61% 1013.9 hPa 0 mm - - -
1777411632 14.44° C 61% 1014.2 hPa 0 mm - - -
1777410732 13.33° C 66% 1014.2 hPa 0 mm - - -

* Rain latest hour (hover to see other rain measurements)
** Current wind speed in m/s (hover to see current wind gust speed)